sensor_id;sensor_type;location;lat;lon;timestamp;P1;durP1;ratioP1;P2;durP2;ratioP2
16504;SDS011;8365;51.030;4.696;2023-04-03T00:00:54;10.83;;;9.70;;
16504;SDS011;8365;51.030;4.696;2023-04-03T00:03:26;11.93;;;8.97;;
16504;SDS011;8365;51.030;4.696;2023-04-03T00:05:56;10.57;;;9.33;;
16504;SDS011;8365;51.030;4.696;2023-04-03T00:08:29;11.20;;;9.50;;
16504;SDS011;8365;51.030;4.696;2023-04-03T00:11:04;13.13;;;9.97;;
16504;SDS011;8365;51.030;4.696;2023-04-03T00:13:35;10.57;;;9.27;;
16504;SDS011;8365;51.030;4.696;2023-04-03T00:16:07;12.53;;;9.77;;
16504;SDS011;8365;51.030;4.696;2023-04-03T00:18:39;12.37;;;10.07;;
16504;SDS011;8365;51.030;4.696;2023-04-03T00:21:11;14.00;;;10.17;;
16504;SDS011;8365;51.030;4.696;2023-04-03T00:23:43;11.40;;;10.07;;
16504;SDS011;8365;51.030;4.696;2023-04-03T00:26:13;13.97;;;10.57;;
16504;SDS011;8365;51.030;4.696;2023-04-03T00:28:44;13.00;;;10.23;;
16504;SDS011;8365;51.030;4.696;2023-04-03T00:31:15;12.40;;;10.70;;
16504;SDS011;8365;51.030;4.696;2023-04-03T00:33:47;11.77;;;10.03;;
16504;SDS011;8365;51.030;4.696;2023-04-03T00:36:18;12.33;;;10.40;;
16504;SDS011;8365;51.030;4.696;2023-04-03T00:38:49;12.33;;;10.27;;
16504;SDS011;8365;51.030;4.696;2023-04-03T00:41:19;14.57;;;10.60;;
16504;SDS011;8365;51.030;4.696;2023-04-03T00:43:50;14.67;;;10.50;;
16504;SDS011;8365;51.030;4.696;2023-04-03T00:46:20;12.00;;;9.63;;
16504;SDS011;8365;51.030;4.696;2023-04-03T00:48:53;12.07;;;9.50;;
16504;SDS011;8365;51.030;4.696;2023-04-03T00:51:23;12.93;;;9.97;;
16504;SDS011;8365;51.030;4.696;2023-04-03T00:53:58;11.63;;;9.83;;
16504;SDS011;8365;51.030;4.696;2023-04-03T00:56:30;13.63;;;9.37;;
16504;SDS011;8365;51.030;4.696;2023-04-03T00:59:06;9.93;;;8.73;;
16504;SDS011;8365;51.030;4.696;2023-04-03T01:01:41;10.47;;;8.63;;
16504;SDS011;8365;51.030;4.696;2023-04-03T01:07:03;13.33;;;8.80;;
16504;SDS011;8365;51.030;4.696;2023-04-03T01:09:44;10.47;;;8.90;;
16504;SDS011;8365;51.030;4.696;2023-04-03T01:12:19;11.80;;;9.27;;
16504;SDS011;8365;51.030;4.696;2023-04-03T01:14:51;11.10;;;9.57;;
16504;SDS011;8365;51.030;4.696;2023-04-03T01:17:36;10.57;;;9.17;;
16504;SDS011;8365;51.030;4.696;2023-04-03T01:25:28;11.13;;;9.37;;
16504;SDS011;8365;51.030;4.696;2023-04-03T01:28:00;10.17;;;9.03;;
16504;SDS011;8365;51.030;4.696;2023-04-03T01:30:32;16.03;;;9.23;;
16504;SDS011;8365;51.030;4.696;2023-04-03T01:33:12;11.07;;;9.57;;
16504;SDS011;8365;51.030;4.696;2023-04-03T01:35:42;11.67;;;8.87;;
16504;SDS011;8365;51.030;4.696;2023-04-03T01:38:13;9.77;;;8.77;;
16504;SDS011;8365;51.030;4.696;2023-04-03T01:40:43;10.53;;;8.90;;
16504;SDS011;8365;51.030;4.696;2023-04-03T01:43:14;9.77;;;8.77;;
16504;SDS011;8365;51.030;4.696;2023-04-03T01:45:47;10.33;;;8.70;;
16504;SDS011;8365;51.030;4.696;2023-04-03T01:48:19;12.60;;;9.20;;
16504;SDS011;8365;51.030;4.696;2023-04-03T01:50:50;12.20;;;9.73;;
16504;SDS011;8365;51.030;4.696;2023-04-03T01:53:20;10.73;;;9.20;;
16504;SDS011;8365;51.030;4.696;2023-04-03T01:55:52;11.93;;;9.20;;
16504;SDS011;8365;51.030;4.696;2023-04-03T01:58:24;10.97;;;8.87;;
16504;SDS011;8365;51.030;4.696;2023-04-03T02:00:54;12.70;;;9.33;;
16504;SDS011;8365;51.030;4.696;2023-04-03T02:03:25;11.60;;;9.70;;
16504;SDS011;8365;51.030;4.696;2023-04-03T02:05:56;11.33;;;9.07;;
16504;SDS011;8365;51.030;4.696;2023-04-03T02:08:27;10.73;;;9.07;;
16504;SDS011;8365;51.030;4.696;2023-04-03T02:10:57;11.43;;;9.67;;
16504;SDS011;8365;51.030;4.696;2023-04-03T02:13:28;12.53;;;9.37;;
16504;SDS011;8365;51.030;4.696;2023-04-03T02:15:58;10.47;;;8.80;;
16504;SDS011;8365;51.030;4.696;2023-04-03T02:18:31;10.40;;;9.37;;
16504;SDS011;8365;51.030;4.696;2023-04-03T02:21:02;10.13;;;9.03;;
16504;SDS011;8365;51.030;4.696;2023-04-03T02:23:32;13.03;;;8.77;;
16504;SDS011;8365;51.030;4.696;2023-04-03T02:26:10;12.07;;;9.27;;
16504;SDS011;8365;51.030;4.696;2023-04-03T02:28:42;9.90;;;8.20;;
16504;SDS011;8365;51.030;4.696;2023-04-03T02:31:13;12.17;;;9.27;;
16504;SDS011;8365;51.030;4.696;2023-04-03T02:33:45;11.50;;;9.33;;
16504;SDS011;8365;51.030;4.696;2023-04-03T02:36:16;11.37;;;8.50;;
16504;SDS011;8365;51.030;4.696;2023-04-03T02:38:46;11.03;;;9.03;;
16504;SDS011;8365;51.030;4.696;2023-04-03T02:41:22;11.37;;;9.23;;
16504;SDS011;8365;51.030;4.696;2023-04-03T02:43:55;12.57;;;9.63;;
16504;SDS011;8365;51.030;4.696;2023-04-03T02:46:25;11.57;;;9.00;;
16504;SDS011;8365;51.030;4.696;2023-04-03T02:48:56;10.30;;;9.30;;
16504;SDS011;8365;51.030;4.696;2023-04-03T02:51:31;9.83;;;8.53;;
16504;SDS011;8365;51.030;4.696;2023-04-03T02:54:03;13.80;;;9.00;;
16504;SDS011;8365;51.030;4.696;2023-04-03T02:56:33;16.70;;;10.53;;
16504;SDS011;8365;51.030;4.696;2023-04-03T02:59:04;11.13;;;10.03;;
16504;SDS011;8365;51.030;4.696;2023-04-03T03:01:36;12.77;;;10.33;;
16504;SDS011;8365;51.030;4.696;2023-04-03T03:04:06;11.17;;;9.50;;
16504;SDS011;8365;51.030;4.696;2023-04-03T03:06:37;11.00;;;9.53;;
16504;SDS011;8365;51.030;4.696;2023-04-03T03:09:08;12.40;;;10.00;;
16504;SDS011;8365;51.030;4.696;2023-04-03T03:11:43;11.93;;;9.13;;
16504;SDS011;8365;51.030;4.696;2023-04-03T03:14:13;11.70;;;9.97;;
16504;SDS011;8365;51.030;4.696;2023-04-03T03:16:44;13.17;;;9.80;;
16504;SDS011;8365;51.030;4.696;2023-04-03T03:19:14;13.17;;;10.37;;
16504;SDS011;8365;51.030;4.696;2023-04-03T03:21:45;10.70;;;9.60;;
16504;SDS011;8365;51.030;4.696;2023-04-03T03:24:16;14.67;;;11.33;;
16504;SDS011;8365;51.030;4.696;2023-04-03T03:26:47;13.63;;;9.63;;
16504;SDS011;8365;51.030;4.696;2023-04-03T03:29:18;14.43;;;10.47;;
16504;SDS011;8365;51.030;4.696;2023-04-03T03:31:48;13.90;;;10.23;;
16504;SDS011;8365;51.030;4.696;2023-04-03T03:34:19;11.37;;;10.17;;
16504;SDS011;8365;51.030;4.696;2023-04-03T03:36:49;11.63;;;10.40;;
16504;SDS011;8365;51.030;4.696;2023-04-03T03:39:22;11.97;;;10.67;;
16504;SDS011;8365;51.030;4.696;2023-04-03T03:41:52;14.03;;;10.87;;
16504;SDS011;8365;51.030;4.696;2023-04-03T03:44:23;13.87;;;11.40;;
16504;SDS011;8365;51.030;4.696;2023-04-03T03:46:53;17.23;;;12.37;;
16504;SDS011;8365;51.030;4.696;2023-04-03T03:49:24;15.07;;;11.80;;
16504;SDS011;8365;51.030;4.696;2023-04-03T03:51:55;12.63;;;10.30;;
16504;SDS011;8365;51.030;4.696;2023-04-03T03:54:28;14.53;;;10.53;;
16504;SDS011;8365;51.030;4.696;2023-04-03T03:56:58;15.37;;;11.70;;
16504;SDS011;8365;51.030;4.696;2023-04-03T03:59:30;13.30;;;11.83;;
16504;SDS011;8365;51.030;4.696;2023-04-03T04:02:01;15.23;;;12.37;;
16504;SDS011;8365;51.030;4.696;2023-04-03T04:04:32;14.40;;;12.57;;
16504;SDS011;8365;51.030;4.696;2023-04-03T04:07:03;15.53;;;12.33;;
16504;SDS011;8365;51.030;4.696;2023-04-03T04:09:34;13.80;;;11.70;;
16504;SDS011;8365;51.030;4.696;2023-04-03T04:12:04;15.60;;;12.43;;
16504;SDS011;8365;51.030;4.696;2023-04-03T04:14:36;15.50;;;12.73;;
16504;SDS011;8365;51.030;4.696;2023-04-03T04:17:06;15.70;;;12.07;;
16504;SDS011;8365;51.030;4.696;2023-04-03T04:19:37;16.40;;;12.77;;
16504;SDS011;8365;51.030;4.696;2023-04-03T04:22:08;16.87;;;12.93;;
16504;SDS011;8365;51.030;4.696;2023-04-03T04:24:38;16.17;;;12.60;;
16504;SDS011;8365;51.030;4.696;2023-04-03T04:27:09;13.73;;;11.60;;
16504;SDS011;8365;51.030;4.696;2023-04-03T04:29:39;15.50;;;12.70;;
16504;SDS011;8365;51.030;4.696;2023-04-03T04:32:10;16.37;;;12.27;;
16504;SDS011;8365;51.030;4.696;2023-04-03T04:34:40;15.63;;;12.10;;
16504;SDS011;8365;51.030;4.696;2023-04-03T04:37:11;17.27;;;12.93;;
16504;SDS011;8365;51.030;4.696;2023-04-03T04:39:41;26.07;;;13.83;;
16504;SDS011;8365;51.030;4.696;2023-04-03T04:42:12;16.93;;;13.67;;
16504;SDS011;8365;51.030;4.696;2023-04-03T04:44:44;16.60;;;13.30;;
16504;SDS011;8365;51.030;4.696;2023-04-03T04:47:17;18.97;;;15.10;;
16504;SDS011;8365;51.030;4.696;2023-04-03T04:49:47;17.90;;;13.70;;
16504;SDS011;8365;51.030;4.696;2023-04-03T04:52:18;19.10;;;13.83;;
16504;SDS011;8365;51.030;4.696;2023-04-03T04:54:49;15.87;;;13.50;;
16504;SDS011;8365;51.030;4.696;2023-04-03T04:57:19;15.93;;;13.93;;
16504;SDS011;8365;51.030;4.696;2023-04-03T04:59:50;16.30;;;12.83;;
16504;SDS011;8365;51.030;4.696;2023-04-03T05:02:20;32.53;;;24.23;;
16504;SDS011;8365;51.030;4.696;2023-04-03T05:04:51;22.37;;;16.40;;
16504;SDS011;8365;51.030;4.696;2023-04-03T05:07:22;19.50;;;14.80;;
16504;SDS011;8365;51.030;4.696;2023-04-03T05:09:53;21.07;;;14.30;;
16504;SDS011;8365;51.030;4.696;2023-04-03T05:12:25;16.13;;;13.83;;
16504;SDS011;8365;51.030;4.696;2023-04-03T05:14:55;20.57;;;14.77;;
16504;SDS011;8365;51.030;4.696;2023-04-03T05:17:28;16.90;;;13.53;;
16504;SDS011;8365;51.030;4.696;2023-04-03T05:19:59;16.17;;;13.23;;
16504;SDS011;8365;51.030;4.696;2023-04-03T05:22:30;19.97;;;14.17;;
16504;SDS011;8365;51.030;4.696;2023-04-03T05:25:04;18.00;;;13.13;;
16504;SDS011;8365;51.030;4.696;2023-04-03T05:27:35;17.43;;;12.90;;
16504;SDS011;8365;51.030;4.696;2023-04-03T05:30:06;20.57;;;14.57;;
16504;SDS011;8365;51.030;4.696;2023-04-03T05:32:38;20.40;;;15.10;;
16504;SDS011;8365;51.030;4.696;2023-04-03T05:35:09;18.77;;;15.10;;
16504;SDS011;8365;51.030;4.696;2023-04-03T05:37:40;18.57;;;14.83;;
16504;SDS011;8365;51.030;4.696;2023-04-03T05:40:11;17.87;;;14.93;;
16504;SDS011;8365;51.030;4.696;2023-04-03T05:42:44;18.33;;;15.47;;
16504;SDS011;8365;51.030;4.696;2023-04-03T05:45:14;17.90;;;15.67;;
16504;SDS011;8365;51.030;4.696;2023-04-03T05:47:47;19.53;;;17.23;;
16504;SDS011;8365;51.030;4.696;2023-04-03T05:50:18;16.63;;;14.87;;
16504;SDS011;8365;51.030;4.696;2023-04-03T05:52:50;20.53;;;15.70;;
16504;SDS011;8365;51.030;4.696;2023-04-03T05:55:24;16.87;;;15.03;;
16504;SDS011;8365;51.030;4.696;2023-04-03T05:57:56;17.43;;;14.80;;
16504;SDS011;8365;51.030;4.696;2023-04-03T06:00:27;18.30;;;15.23;;
16504;SDS011;8365;51.030;4.696;2023-04-03T06:02:59;19.27;;;15.67;;
16504;SDS011;8365;51.030;4.696;2023-04-03T06:05:30;17.40;;;15.50;;
16504;SDS011;8365;51.030;4.696;2023-04-03T06:08:00;17.47;;;15.50;;
16504;SDS011;8365;51.030;4.696;2023-04-03T06:10:31;16.87;;;15.07;;
16504;SDS011;8365;51.030;4.696;2023-04-03T06:13:01;17.07;;;15.13;;
16504;SDS011;8365;51.030;4.696;2023-04-03T06:15:32;17.80;;;15.23;;
16504;SDS011;8365;51.030;4.696;2023-04-03T06:18:05;19.07;;;15.20;;
16504;SDS011;8365;51.030;4.696;2023-04-03T06:20:36;18.17;;;14.70;;
16504;SDS011;8365;51.030;4.696;2023-04-03T06:23:07;18.60;;;15.07;;
16504;SDS011;8365;51.030;4.696;2023-04-03T06:25:37;17.30;;;14.50;;
16504;SDS011;8365;51.030;4.696;2023-04-03T06:28:08;18.50;;;16.13;;
16504;SDS011;8365;51.030;4.696;2023-04-03T06:30:40;16.57;;;14.83;;
16504;SDS011;8365;51.030;4.696;2023-04-03T06:33:10;15.97;;;14.27;;
16504;SDS011;8365;51.030;4.696;2023-04-03T06:35:41;20.43;;;15.00;;
16504;SDS011;8365;51.030;4.696;2023-04-03T06:38:11;16.07;;;13.87;;
16504;SDS011;8365;51.030;4.696;2023-04-03T06:40:42;15.67;;;14.07;;
16504;SDS011;8365;51.030;4.696;2023-04-03T06:43:12;16.80;;;13.87;;
16504;SDS011;8365;51.030;4.696;2023-04-03T06:45:43;15.77;;;14.10;;
16504;SDS011;8365;51.030;4.696;2023-04-03T06:48:14;15.63;;;13.93;;
16504;SDS011;8365;51.030;4.696;2023-04-03T06:50:47;16.00;;;13.73;;
16504;SDS011;8365;51.030;4.696;2023-04-03T06:53:17;15.77;;;12.90;;
16504;SDS011;8365;51.030;4.696;2023-04-03T06:55:48;15.53;;;13.37;;
16504;SDS011;8365;51.030;4.696;2023-04-03T06:58:18;14.67;;;12.40;;
16504;SDS011;8365;51.030;4.696;2023-04-03T07:00:49;18.40;;;11.97;;
16504;SDS011;8365;51.030;4.696;2023-04-03T07:03:20;16.37;;;12.23;;
16504;SDS011;8365;51.030;4.696;2023-04-03T07:05:50;17.23;;;12.10;;
16504;SDS011;8365;51.030;4.696;2023-04-03T07:08:20;13.87;;;11.10;;
16504;SDS011;8365;51.030;4.696;2023-04-03T07:10:53;12.50;;;11.20;;
16504;SDS011;8365;51.030;4.696;2023-04-03T07:13:24;13.20;;;10.53;;
16504;SDS011;8365;51.030;4.696;2023-04-03T07:15:55;12.30;;;9.53;;
16504;SDS011;8365;51.030;4.696;2023-04-03T07:18:25;11.17;;;9.20;;
16504;SDS011;8365;51.030;4.696;2023-04-03T07:20:56;11.57;;;9.40;;
16504;SDS011;8365;51.030;4.696;2023-04-03T07:23:27;12.10;;;9.17;;
16504;SDS011;8365;51.030;4.696;2023-04-03T07:25:57;11.87;;;9.43;;
16504;SDS011;8365;51.030;4.696;2023-04-03T07:28:28;11.90;;;9.53;;
16504;SDS011;8365;51.030;4.696;2023-04-03T07:31:00;14.80;;;9.10;;
16504;SDS011;8365;51.030;4.696;2023-04-03T07:33:35;9.63;;;7.67;;
16504;SDS011;8365;51.030;4.696;2023-04-03T07:36:09;9.67;;;7.70;;
16504;SDS011;8365;51.030;4.696;2023-04-03T07:38:45;10.53;;;8.17;;
16504;SDS011;8365;51.030;4.696;2023-04-03T07:41:18;9.63;;;7.47;;
16504;SDS011;8365;51.030;4.696;2023-04-03T07:43:52;10.27;;;7.13;;
16504;SDS011;8365;51.030;4.696;2023-04-03T07:46:26;8.13;;;6.70;;
16504;SDS011;8365;51.030;4.696;2023-04-03T07:48:56;9.30;;;7.13;;
16504;SDS011;8365;51.030;4.696;2023-04-03T07:51:27;9.50;;;6.90;;
16504;SDS011;8365;51.030;4.696;2023-04-03T07:54:00;7.33;;;6.47;;
16504;SDS011;8365;51.030;4.696;2023-04-03T07:56:31;9.70;;;6.57;;
16504;SDS011;8365;51.030;4.696;2023-04-03T07:59:02;8.60;;;6.23;;
16504;SDS011;8365;51.030;4.696;2023-04-03T08:01:34;11.07;;;6.70;;
16504;SDS011;8365;51.030;4.696;2023-04-03T08:04:06;7.67;;;5.80;;
16504;SDS011;8365;51.030;4.696;2023-04-03T08:06:36;8.50;;;6.67;;
16504;SDS011;8365;51.030;4.696;2023-04-03T08:09:10;6.10;;;5.40;;
16504;SDS011;8365;51.030;4.696;2023-04-03T08:11:40;6.50;;;5.30;;
16504;SDS011;8365;51.030;4.696;2023-04-03T08:14:11;7.57;;;5.10;;
16504;SDS011;8365;51.030;4.696;2023-04-03T08:16:46;8.23;;;5.30;;
16504;SDS011;8365;51.030;4.696;2023-04-03T08:19:19;7.97;;;4.77;;
16504;SDS011;8365;51.030;4.696;2023-04-03T08:21:50;5.20;;;4.40;;
16504;SDS011;8365;51.030;4.696;2023-04-03T08:24:21;6.23;;;4.20;;
16504;SDS011;8365;51.030;4.696;2023-04-03T08:26:51;7.27;;;4.50;;
16504;SDS011;8365;51.030;4.696;2023-04-03T08:29:22;5.67;;;4.23;;
16504;SDS011;8365;51.030;4.696;2023-04-03T08:31:53;7.10;;;4.00;;
16504;SDS011;8365;51.030;4.696;2023-04-03T08:34:24;4.60;;;4.00;;
16504;SDS011;8365;51.030;4.696;2023-04-03T08:36:58;3.90;;;3.60;;
16504;SDS011;8365;51.030;4.696;2023-04-03T08:39:30;5.60;;;3.93;;
16504;SDS011;8365;51.030;4.696;2023-04-03T08:42:04;8.23;;;4.23;;
16504;SDS011;8365;51.030;4.696;2023-04-03T08:44:48;5.20;;;3.80;;
16504;SDS011;8365;51.030;4.696;2023-04-03T08:47:34;4.70;;;4.20;;
16504;SDS011;8365;51.030;4.696;2023-04-03T08:50:15;5.67;;;3.90;;
16504;SDS011;8365;51.030;4.696;2023-04-03T08:52:52;4.53;;;3.83;;
16504;SDS011;8365;51.030;4.696;2023-04-03T08:58:05;5.67;;;3.67;;
16504;SDS011;8365;51.030;4.696;2023-04-03T09:03:13;6.10;;;3.10;;
16504;SDS011;8365;51.030;4.696;2023-04-03T09:05:51;5.23;;;3.30;;
16504;SDS011;8365;51.030;4.696;2023-04-03T09:16:59;4.00;;;2.70;;
16504;SDS011;8365;51.030;4.696;2023-04-03T09:22:27;4.87;;;2.93;;
16504;SDS011;8365;51.030;4.696;2023-04-03T09:27:35;4.97;;;3.33;;
16504;SDS011;8365;51.030;4.696;2023-04-03T09:30:17;4.00;;;3.07;;
16504;SDS011;8365;51.030;4.696;2023-04-03T09:32:52;6.70;;;3.33;;
16504;SDS011;8365;51.030;4.696;2023-04-03T09:43:36;3.43;;;2.80;;
16504;SDS011;8365;51.030;4.696;2023-04-03T09:46:24;6.23;;;2.83;;
16504;SDS011;8365;51.030;4.696;2023-04-03T09:49:01;4.80;;;3.27;;
16504;SDS011;8365;51.030;4.696;2023-04-03T09:51:33;4.90;;;3.00;;
16504;SDS011;8365;51.030;4.696;2023-04-03T09:57:12;5.00;;;3.33;;
16504;SDS011;8365;51.030;4.696;2023-04-03T09:59:58;6.43;;;3.20;;
16504;SDS011;8365;51.030;4.696;2023-04-03T10:02:32;4.10;;;3.03;;
16504;SDS011;8365;51.030;4.696;2023-04-03T10:10:42;5.40;;;3.20;;
16504;SDS011;8365;51.030;4.696;2023-04-03T10:13:18;4.87;;;3.20;;
16504;SDS011;8365;51.030;4.696;2023-04-03T10:15:55;5.30;;;2.87;;
16504;SDS011;8365;51.030;4.696;2023-04-03T10:18:39;2.57;;;2.27;;
16504;SDS011;8365;51.030;4.696;2023-04-03T10:24:14;3.90;;;2.23;;
16504;SDS011;8365;51.030;4.696;2023-04-03T10:33:05;2.73;;;2.47;;
16504;SDS011;8365;51.030;4.696;2023-04-03T10:36:10;3.03;;;2.37;;
16504;SDS011;8365;51.030;4.696;2023-04-03T10:39:10;3.97;;;2.67;;
16504;SDS011;8365;51.030;4.696;2023-04-03T10:50:23;3.47;;;2.38;;
16504;SDS011;8365;51.030;4.696;2023-04-03T10:53:24;5.93;;;2.47;;
16504;SDS011;8365;51.030;4.696;2023-04-03T11:01:53;4.75;;;2.40;;
16504;SDS011;8365;51.030;4.696;2023-04-03T11:04:27;4.88;;;2.50;;
16504;SDS011;8365;51.030;4.696;2023-04-03T11:09:43;2.83;;;2.30;;
16504;SDS011;8365;51.030;4.696;2023-04-03T11:14:51;2.15;;;1.88;;
16504;SDS011;8365;51.030;4.696;2023-04-03T11:17:30;3.88;;;2.13;;
16504;SDS011;8365;51.030;4.696;2023-04-03T11:20:10;2.97;;;2.20;;
16504;SDS011;8365;51.030;4.696;2023-04-03T11:22:58;3.28;;;1.83;;
16504;SDS011;8365;51.030;4.696;2023-04-03T11:25:33;2.03;;;1.88;;
16504;SDS011;8365;51.030;4.696;2023-04-03T11:28:11;2.97;;;2.20;;
16504;SDS011;8365;51.030;4.696;2023-04-03T11:36:24;4.95;;;2.25;;
16504;SDS011;8365;51.030;4.696;2023-04-03T11:39:07;3.65;;;2.30;;
16504;SDS011;8365;51.030;4.696;2023-04-03T11:41:51;2.78;;;2.22;;
16504;SDS011;8365;51.030;4.696;2023-04-03T11:44:37;2.92;;;2.00;;
16504;SDS011;8365;51.030;4.696;2023-04-03T11:47:09;2.08;;;1.80;;
16504;SDS011;8365;51.030;4.696;2023-04-03T12:24:27;2.88;;;2.60;;
16504;SDS011;8365;51.030;4.696;2023-04-03T12:29:34;2.38;;;2.00;;
16504;SDS011;8365;51.030;4.696;2023-04-03T12:32:58;3.72;;;2.20;;
16504;SDS011;8365;51.030;4.696;2023-04-03T12:35:08;4.13;;;2.30;;
16504;SDS011;8365;51.030;4.696;2023-04-03T12:43:43;2.25;;;2.05;;
16504;SDS011;8365;51.030;4.696;2023-04-03T12:46:38;2.58;;;2.35;;
16504;SDS011;8365;51.030;4.696;2023-04-03T12:51:56;4.72;;;2.72;;
16504;SDS011;8365;51.030;4.696;2023-04-03T12:57:16;4.35;;;2.30;;
16504;SDS011;8365;51.030;4.696;2023-04-03T12:59:51;3.47;;;2.25;;
16504;SDS011;8365;51.030;4.696;2023-04-03T13:02:27;4.90;;;2.40;;
16504;SDS011;8365;51.030;4.696;2023-04-03T13:04:58;4.13;;;2.58;;
16504;SDS011;8365;51.030;4.696;2023-04-03T13:07:35;4.53;;;2.30;;
16504;SDS011;8365;51.030;4.696;2023-04-03T13:12:48;5.60;;;2.70;;
16504;SDS011;8365;51.030;4.696;2023-04-03T13:15:26;3.72;;;2.35;;
16504;SDS011;8365;51.030;4.696;2023-04-03T13:20:57;3.83;;;2.30;;
16504;SDS011;8365;51.030;4.696;2023-04-03T13:23:31;3.03;;;2.33;;
16504;SDS011;8365;51.030;4.696;2023-04-03T13:26:05;3.20;;;2.55;;
16504;SDS011;8365;51.030;4.696;2023-04-03T13:28:49;3.65;;;2.20;;
16504;SDS011;8365;51.030;4.696;2023-04-03T13:31:25;5.22;;;2.85;;
16504;SDS011;8365;51.030;4.696;2023-04-03T13:34:09;3.33;;;2.22;;
16504;SDS011;8365;51.030;4.696;2023-04-03T13:39:28;3.05;;;2.20;;
16504;SDS011;8365;51.030;4.696;2023-04-03T13:45:06;4.45;;;2.40;;
16504;SDS011;8365;51.030;4.696;2023-04-03T13:47:40;1.90;;;1.70;;
16504;SDS011;8365;51.030;4.696;2023-04-03T13:50:15;4.10;;;1.90;;
16504;SDS011;8365;51.030;4.696;2023-04-03T13:52:50;2.38;;;2.05;;
16504;SDS011;8365;51.030;4.696;2023-04-03T13:58:02;4.10;;;1.90;;
16504;SDS011;8365;51.030;4.696;2023-04-03T14:01:33;3.40;;;2.33;;
16504;SDS011;8365;51.030;4.696;2023-04-03T14:03:55;4.78;;;2.10;;
16504;SDS011;8365;51.030;4.696;2023-04-03T14:06:28;3.00;;;2.05;;
16504;SDS011;8365;51.030;4.696;2023-04-03T14:08:59;3.28;;;1.80;;
16504;SDS011;8365;51.030;4.696;2023-04-03T14:11:30;2.60;;;2.13;;
16504;SDS011;8365;51.030;4.696;2023-04-03T14:14:01;2.83;;;2.00;;
16504;SDS011;8365;51.030;4.696;2023-04-03T14:16:37;2.50;;;2.10;;
16504;SDS011;8365;51.030;4.696;2023-04-03T14:19:21;3.45;;;1.95;;
16504;SDS011;8365;51.030;4.696;2023-04-03T14:21:54;3.70;;;2.35;;
16504;SDS011;8365;51.030;4.696;2023-04-03T14:24:26;3.25;;;2.08;;
16504;SDS011;8365;51.030;4.696;2023-04-03T14:26:57;2.75;;;2.00;;
16504;SDS011;8365;51.030;4.696;2023-04-03T14:29:28;3.97;;;1.85;;
16504;SDS011;8365;51.030;4.696;2023-04-03T14:31:59;2.13;;;2.03;;
16504;SDS011;8365;51.030;4.696;2023-04-03T14:34:30;3.30;;;2.10;;
16504;SDS011;8365;51.030;4.696;2023-04-03T14:37:00;3.20;;;2.10;;
16504;SDS011;8365;51.030;4.696;2023-04-03T14:39:31;2.90;;;1.95;;
16504;SDS011;8365;51.030;4.696;2023-04-03T14:42:01;3.63;;;1.80;;
16504;SDS011;8365;51.030;4.696;2023-04-03T14:44:32;2.45;;;1.60;;
16504;SDS011;8365;51.030;4.696;2023-04-03T14:47:03;2.25;;;1.88;;
16504;SDS011;8365;51.030;4.696;2023-04-03T14:49:34;2.75;;;1.80;;
16504;SDS011;8365;51.030;4.696;2023-04-03T14:52:05;1.98;;;1.80;;
16504;SDS011;8365;51.030;4.696;2023-04-03T14:54:36;2.78;;;2.00;;
16504;SDS011;8365;51.030;4.696;2023-04-03T14:57:09;5.07;;;2.70;;
16504;SDS011;8365;51.030;4.696;2023-04-03T14:59:44;2.88;;;2.17;;
16504;SDS011;8365;51.030;4.696;2023-04-03T15:04:45;3.72;;;2.00;;
16504;SDS011;8365;51.030;4.696;2023-04-03T15:07:16;2.97;;;1.95;;
16504;SDS011;8365;51.030;4.696;2023-04-03T15:09:48;2.70;;;2.40;;
16504;SDS011;8365;51.030;4.696;2023-04-03T15:12:19;2.88;;;2.30;;
16504;SDS011;8365;51.030;4.696;2023-04-03T15:14:50;3.63;;;2.30;;
16504;SDS011;8365;51.030;4.696;2023-04-03T15:17:21;2.80;;;2.33;;
16504;SDS011;8365;51.030;4.696;2023-04-03T15:19:53;3.22;;;2.03;;
16504;SDS011;8365;51.030;4.696;2023-04-03T15:22:23;3.78;;;2.40;;
16504;SDS011;8365;51.030;4.696;2023-04-03T15:24:54;2.22;;;2.03;;
16504;SDS011;8365;51.030;4.696;2023-04-03T15:27:27;3.22;;;2.15;;
16504;SDS011;8365;51.030;4.696;2023-04-03T15:29:58;2.20;;;1.88;;
16504;SDS011;8365;51.030;4.696;2023-04-03T15:32:29;3.55;;;2.10;;
16504;SDS011;8365;51.030;4.696;2023-04-03T15:34:59;5.10;;;2.40;;
16504;SDS011;8365;51.030;4.696;2023-04-03T15:37:30;2.97;;;2.30;;
16504;SDS011;8365;51.030;4.696;2023-04-03T15:40:03;2.85;;;2.20;;
16504;SDS011;8365;51.030;4.696;2023-04-03T15:42:34;2.60;;;2.15;;
16504;SDS011;8365;51.030;4.696;2023-04-03T15:45:05;3.05;;;2.30;;
16504;SDS011;8365;51.030;4.696;2023-04-03T15:47:36;2.58;;;2.25;;
16504;SDS011;8365;51.030;4.696;2023-04-03T15:50:08;3.85;;;2.20;;
16504;SDS011;8365;51.030;4.696;2023-04-03T15:52:41;3.28;;;2.13;;
16504;SDS011;8365;51.030;4.696;2023-04-03T15:55:13;3.15;;;2.25;;
16504;SDS011;8365;51.030;4.696;2023-04-03T15:57:45;3.15;;;2.15;;
16504;SDS011;8365;51.030;4.696;2023-04-03T16:00:18;3.03;;;2.17;;
16504;SDS011;8365;51.030;4.696;2023-04-03T16:02:50;3.33;;;2.22;;
16504;SDS011;8365;51.030;4.696;2023-04-03T16:05:23;2.45;;;2.13;;
16504;SDS011;8365;51.030;4.696;2023-04-03T16:07:55;3.50;;;2.28;;
16504;SDS011;8365;51.030;4.696;2023-04-03T16:10:28;4.85;;;2.38;;
16504;SDS011;8365;51.030;4.696;2023-04-03T16:12:58;4.43;;;2.40;;
16504;SDS011;8365;51.030;4.696;2023-04-03T16:15:29;4.80;;;2.40;;
16504;SDS011;8365;51.030;4.696;2023-04-03T16:18:00;3.42;;;2.30;;
16504;SDS011;8365;51.030;4.696;2023-04-03T16:20:31;2.88;;;2.55;;
16504;SDS011;8365;51.030;4.696;2023-04-03T16:23:02;3.17;;;2.40;;
16504;SDS011;8365;51.030;4.696;2023-04-03T16:25:33;3.15;;;2.42;;
16504;SDS011;8365;51.030;4.696;2023-04-03T16:28:04;5.63;;;2.85;;
16504;SDS011;8365;51.030;4.696;2023-04-03T16:30:35;2.83;;;2.50;;
16504;SDS011;8365;51.030;4.696;2023-04-03T16:33:06;3.80;;;2.83;;
16504;SDS011;8365;51.030;4.696;2023-04-03T16:35:38;3.92;;;2.70;;
16504;SDS011;8365;51.030;4.696;2023-04-03T16:38:09;3.95;;;2.63;;
16504;SDS011;8365;51.030;4.696;2023-04-03T16:40:40;2.90;;;2.40;;
16504;SDS011;8365;51.030;4.696;2023-04-03T16:43:11;3.22;;;2.78;;
16504;SDS011;8365;51.030;4.696;2023-04-03T16:45:42;4.25;;;2.85;;
16504;SDS011;8365;51.030;4.696;2023-04-03T16:48:13;6.55;;;2.70;;
16504;SDS011;8365;51.030;4.696;2023-04-03T16:50:47;3.63;;;2.63;;
16504;SDS011;8365;51.030;4.696;2023-04-03T16:53:22;3.80;;;2.63;;
16504;SDS011;8365;51.030;4.696;2023-04-03T16:55:54;4.95;;;3.03;;
16504;SDS011;8365;51.030;4.696;2023-04-03T16:58:26;4.05;;;2.60;;
16504;SDS011;8365;51.030;4.696;2023-04-03T17:00:57;2.88;;;2.58;;
16504;SDS011;8365;51.030;4.696;2023-04-03T17:03:29;3.13;;;2.23;;
16504;SDS011;8365;51.030;4.696;2023-04-03T17:05:59;5.72;;;2.90;;
16504;SDS011;8365;51.030;4.696;2023-04-03T17:08:30;3.93;;;2.93;;
16504;SDS011;8365;51.030;4.696;2023-04-03T17:11:02;3.93;;;2.80;;
16504;SDS011;8365;51.030;4.696;2023-04-03T17:13:33;6.18;;;2.55;;
16504;SDS011;8365;51.030;4.696;2023-04-03T17:16:05;4.87;;;2.80;;
16504;SDS011;8365;51.030;4.696;2023-04-03T17:18:38;8.07;;;2.87;;
16504;SDS011;8365;51.030;4.696;2023-04-03T17:21:09;4.57;;;2.57;;
16504;SDS011;8365;51.030;4.696;2023-04-03T17:23:42;5.83;;;2.97;;
16504;SDS011;8365;51.030;4.696;2023-04-03T17:26:15;5.00;;;2.80;;
16504;SDS011;8365;51.030;4.696;2023-04-03T17:28:46;5.40;;;3.23;;
16504;SDS011;8365;51.030;4.696;2023-04-03T17:31:16;4.13;;;3.30;;
16504;SDS011;8365;51.030;4.696;2023-04-03T17:33:50;3.57;;;2.50;;
16504;SDS011;8365;51.030;4.696;2023-04-03T17:36:20;3.87;;;2.93;;
16504;SDS011;8365;51.030;4.696;2023-04-03T17:38:51;5.70;;;2.63;;
16504;SDS011;8365;51.030;4.696;2023-04-03T17:41:21;5.43;;;2.50;;
16504;SDS011;8365;51.030;4.696;2023-04-03T17:43:52;3.20;;;2.70;;
16504;SDS011;8365;51.030;4.696;2023-04-03T17:46:25;5.63;;;2.73;;
16504;SDS011;8365;51.030;4.696;2023-04-03T17:48:56;4.43;;;2.70;;